Aérodrome :
LOGIN :

S'inscrire | Disclaimer

   EN    FR    IT 

 










Légende :    VFR   VFR Marginal   IFR   IFR Intensif   IFR Très Intensif
Visi : 
Plafond : 
>= 8 km
>= 3000ft
5 à 8 km
1000 à 3000 ft
1500m à 5 km
500 à 1000 ft
800 à 1500m
200 à 500 ft
< 800m
< 200 ft
Symboles :   Orages  Brouillard  Fortes neiges  Fortes précipitations  Vent > 20 kt
SIGMETs :   Divers  Orages  Givrage  Turbulence  Onde Orograph.  Cendres Volcan.







- Altitude de l'aérodrome : 16 ft
- Code IATA : LPX


EVLA - Liepaja

DERNIER METAR :
  • 182350Z AUTO 19010KT 9999 NCD 04/03 Q1014

METARs EXPIRÉS :
  • 182320Z AUTO 18008KT 9999 NCD 04/03 Q1014
  • 182250Z AUTO 19010KT 9999 NCD 04/03 Q1014
  • 182220Z AUTO 19011KT 9999 NCD 04/03 Q1015
  • 182150Z AUTO 18011KT 9999 NCD 04/03 Q1015
  • 182120Z AUTO 18010KT 9999 NCD 04/03 Q1015

TAF TAF EVLA
Valide du 19 à 00h jusqu'au 20 à 00h UTC


182301Z 1900/1924 19010KT CAVOK
TEMPO 1900/1902 3000 BR BKN005
TEMPO 1902/1909 0700 FG BKN001
TEMPO 1909/1912 2000 BR OVC002
BECMG 1915/1917 24013KT BKN010 OVC020
TEMPO 1917/1924 24015G28KT
BECMG 1922/1924 BKN020
Pas de NOTAMs connus pour ce terrain.



MET'MAP, la Météo Aéronautique d'un coup d'oeil ! - Copyright ORBIFLY Décembre 2007 - Disclaimer

ORBIFLY MET'MAP TEAM :

Programmation & Développement : Alexandra Zaïnal
Conception & Développement : Baudouin d'Aumeries
Co-Programmation & Développement : Marc-Olivier Méhu
Soutien technique & logistique : Manuel Goepfert

Contact : metmap@orbifly.com




SOURCES & CREDITS :

   NOAA